sensor_id;sensor_type;location;lat;lon;timestamp;P1;durP1;ratioP1;P2;durP2;ratioP2
17592;SDS011;8915;51.760;14.300;2023-05-14T00:00:25;13.77;;;10.13;;
17592;SDS011;8915;51.760;14.300;2023-05-14T00:02:52;11.70;;;10.47;;
17592;SDS011;8915;51.760;14.300;2023-05-14T00:05:21;11.83;;;10.20;;
17592;SDS011;8915;51.760;14.300;2023-05-14T00:07:47;12.13;;;10.33;;
17592;SDS011;8915;51.760;14.300;2023-05-14T00:10:14;12.97;;;10.03;;
17592;SDS011;8915;51.760;14.300;2023-05-14T00:12:43;14.00;;;10.60;;
17592;SDS011;8915;51.760;14.300;2023-05-14T00:15:09;11.70;;;9.67;;
17592;SDS011;8915;51.760;14.300;2023-05-14T00:17:36;14.10;;;9.70;;
17592;SDS011;8915;51.760;14.300;2023-05-14T00:20:03;12.30;;;9.73;;
17592;SDS011;8915;51.760;14.300;2023-05-14T00:22:32;10.70;;;9.57;;
17592;SDS011;8915;51.760;14.300;2023-05-14T00:25:01;12.10;;;9.27;;
17592;SDS011;8915;51.760;14.300;2023-05-14T00:27:27;12.40;;;9.80;;
17592;SDS011;8915;51.760;14.300;2023-05-14T00:29:54;12.60;;;9.93;;
17592;SDS011;8915;51.760;14.300;2023-05-14T00:32:20;12.23;;;9.20;;
17592;SDS011;8915;51.760;14.300;2023-05-14T00:34:47;11.47;;;9.30;;
17592;SDS011;8915;51.760;14.300;2023-05-14T00:37:13;9.83;;;8.43;;
17592;SDS011;8915;51.760;14.300;2023-05-14T00:39:41;10.77;;;9.23;;
17592;SDS011;8915;51.760;14.300;2023-05-14T00:42:08;10.23;;;8.93;;
17592;SDS011;8915;51.760;14.300;2023-05-14T00:44:37;10.03;;;8.30;;
17592;SDS011;8915;51.760;14.300;2023-05-14T00:47:04;9.40;;;8.40;;
17592;SDS011;8915;51.760;14.300;2023-05-14T00:49:31;12.23;;;9.63;;
17592;SDS011;8915;51.760;14.300;2023-05-14T00:51:58;11.37;;;9.03;;
17592;SDS011;8915;51.760;14.300;2023-05-14T00:54:24;11.60;;;8.87;;
17592;SDS011;8915;51.760;14.300;2023-05-14T00:56:57;11.83;;;9.90;;
17592;SDS011;8915;51.760;14.300;2023-05-14T00:59:25;11.17;;;9.33;;
17592;SDS011;8915;51.760;14.300;2023-05-14T01:01:51;12.17;;;9.37;;
17592;SDS011;8915;51.760;14.300;2023-05-14T01:04:17;11.77;;;9.10;;
17592;SDS011;8915;51.760;14.300;2023-05-14T01:06:53;9.87;;;8.57;;
17592;SDS011;8915;51.760;14.300;2023-05-14T01:09:31;11.63;;;9.40;;
17592;SDS011;8915;51.760;14.300;2023-05-14T01:12:15;11.73;;;9.33;;
17592;SDS011;8915;51.760;14.300;2023-05-14T01:14:47;11.73;;;9.60;;
17592;SDS011;8915;51.760;14.300;2023-05-14T01:17:19;10.93;;;9.67;;
17592;SDS011;8915;51.760;14.300;2023-05-14T01:19:47;11.20;;;9.87;;
17592;SDS011;8915;51.760;14.300;2023-05-14T01:22:18;13.97;;;9.13;;
17592;SDS011;8915;51.760;14.300;2023-05-14T01:24:46;10.00;;;9.00;;
17592;SDS011;8915;51.760;14.300;2023-05-14T01:27:16;9.83;;;8.80;;
17592;SDS011;8915;51.760;14.300;2023-05-14T01:29:48;11.37;;;9.70;;
17592;SDS011;8915;51.760;14.300;2023-05-14T01:32:18;12.17;;;9.57;;
17592;SDS011;8915;51.760;14.300;2023-05-14T01:34:47;9.80;;;8.07;;
17592;SDS011;8915;51.760;14.300;2023-05-14T01:37:15;10.77;;;8.60;;
17592;SDS011;8915;51.760;14.300;2023-05-14T01:39:44;10.90;;;9.73;;
17592;SDS011;8915;51.760;14.300;2023-05-14T01:42:11;12.30;;;9.17;;
17592;SDS011;8915;51.760;14.300;2023-05-14T01:44:41;13.63;;;9.73;;
17592;SDS011;8915;51.760;14.300;2023-05-14T01:47:08;11.90;;;9.77;;
17592;SDS011;8915;51.760;14.300;2023-05-14T01:49:34;10.63;;;8.80;;
17592;SDS011;8915;51.760;14.300;2023-05-14T01:52:01;11.80;;;9.70;;
17592;SDS011;8915;51.760;14.300;2023-05-14T01:54:27;13.03;;;10.13;;
17592;SDS011;8915;51.760;14.300;2023-05-14T01:56:55;10.47;;;8.63;;
17592;SDS011;8915;51.760;14.300;2023-05-14T01:59:21;11.20;;;8.00;;
17592;SDS011;8915;51.760;14.300;2023-05-14T02:01:48;10.00;;;8.97;;
17592;SDS011;8915;51.760;14.300;2023-05-14T02:04:14;9.73;;;8.63;;
17592;SDS011;8915;51.760;14.300;2023-05-14T02:06:41;10.17;;;8.83;;
17592;SDS011;8915;51.760;14.300;2023-05-14T02:09:08;9.93;;;8.47;;
17592;SDS011;8915;51.760;14.300;2023-05-14T02:11:35;11.27;;;8.77;;
17592;SDS011;8915;51.760;14.300;2023-05-14T02:14:03;10.90;;;8.90;;
17592;SDS011;8915;51.760;14.300;2023-05-14T02:16:29;11.40;;;8.57;;
17592;SDS011;8915;51.760;14.300;2023-05-14T02:18:57;10.83;;;8.37;;
17592;SDS011;8915;51.760;14.300;2023-05-14T02:21:23;9.70;;;8.63;;
17592;SDS011;8915;51.760;14.300;2023-05-14T02:23:49;10.70;;;8.80;;
17592;SDS011;8915;51.760;14.300;2023-05-14T02:26:16;10.43;;;9.27;;
17592;SDS011;8915;51.760;14.300;2023-05-14T02:28:42;11.87;;;9.83;;
17592;SDS011;8915;51.760;14.300;2023-05-14T02:31:12;10.63;;;8.53;;
17592;SDS011;8915;51.760;14.300;2023-05-14T02:33:40;10.60;;;8.63;;
17592;SDS011;8915;51.760;14.300;2023-05-14T02:36:06;9.60;;;8.60;;
17592;SDS011;8915;51.760;14.300;2023-05-14T02:38:33;10.67;;;9.20;;
17592;SDS011;8915;51.760;14.300;2023-05-14T02:40:59;15.70;;;10.90;;
17592;SDS011;8915;51.760;14.300;2023-05-14T02:43:25;11.13;;;8.33;;
17592;SDS011;8915;51.760;14.300;2023-05-14T02:45:52;9.90;;;8.80;;
17592;SDS011;8915;51.760;14.300;2023-05-14T02:48:19;10.73;;;8.83;;
17592;SDS011;8915;51.760;14.300;2023-05-14T02:50:46;10.23;;;7.97;;
17592;SDS011;8915;51.760;14.300;2023-05-14T02:53:13;10.53;;;8.40;;
17592;SDS011;8915;51.760;14.300;2023-05-14T02:55:39;10.60;;;8.43;;
17592;SDS011;8915;51.760;14.300;2023-05-14T02:58:06;11.87;;;8.53;;
17592;SDS011;8915;51.760;14.300;2023-05-14T03:00:32;10.20;;;7.97;;
17592;SDS011;8915;51.760;14.300;2023-05-14T03:02:59;9.70;;;8.10;;
17592;SDS011;8915;51.760;14.300;2023-05-14T03:05:26;8.93;;;7.50;;
17592;SDS011;8915;51.760;14.300;2023-05-14T03:07:53;9.77;;;7.77;;
17592;SDS011;8915;51.760;14.300;2023-05-14T03:10:19;9.73;;;8.73;;
17592;SDS011;8915;51.760;14.300;2023-05-14T03:12:46;10.80;;;7.93;;
17592;SDS011;8915;51.760;14.300;2023-05-14T03:15:13;9.67;;;8.60;;
17592;SDS011;8915;51.760;14.300;2023-05-14T03:17:39;9.93;;;8.27;;
17592;SDS011;8915;51.760;14.300;2023-05-14T03:20:08;10.47;;;8.30;;
17592;SDS011;8915;51.760;14.300;2023-05-14T03:22:37;9.87;;;8.87;;
17592;SDS011;8915;51.760;14.300;2023-05-14T03:25:03;10.07;;;8.90;;
17592;SDS011;8915;51.760;14.300;2023-05-14T03:27:30;12.37;;;9.17;;
17592;SDS011;8915;51.760;14.300;2023-05-14T03:29:57;10.37;;;9.30;;
17592;SDS011;8915;51.760;14.300;2023-05-14T03:32:23;12.00;;;9.93;;
17592;SDS011;8915;51.760;14.300;2023-05-14T03:34:50;13.73;;;9.30;;
17592;SDS011;8915;51.760;14.300;2023-05-14T03:37:17;12.40;;;9.70;;
17592;SDS011;8915;51.760;14.300;2023-05-14T03:39:44;12.17;;;9.07;;
17592;SDS011;8915;51.760;14.300;2023-05-14T03:42:11;13.03;;;10.17;;
17592;SDS011;8915;51.760;14.300;2023-05-14T03:44:37;12.30;;;10.17;;
17592;SDS011;8915;51.760;14.300;2023-05-14T03:47:03;11.57;;;9.80;;
17592;SDS011;8915;51.760;14.300;2023-05-14T03:49:30;11.87;;;9.57;;
17592;SDS011;8915;51.760;14.300;2023-05-14T03:51:56;12.47;;;9.87;;
17592;SDS011;8915;51.760;14.300;2023-05-14T03:54:23;12.47;;;9.33;;
17592;SDS011;8915;51.760;14.300;2023-05-14T03:56:51;12.90;;;9.77;;
17592;SDS011;8915;51.760;14.300;2023-05-14T03:59:17;14.80;;;10.60;;
17592;SDS011;8915;51.760;14.300;2023-05-14T04:01:44;12.70;;;10.40;;
17592;SDS011;8915;51.760;14.300;2023-05-14T04:04:10;11.03;;;9.60;;
17592;SDS011;8915;51.760;14.300;2023-05-14T04:06:36;11.70;;;9.70;;
17592;SDS011;8915;51.760;14.300;2023-05-14T04:09:04;12.97;;;10.63;;
17592;SDS011;8915;51.760;14.300;2023-05-14T04:11:31;12.97;;;10.70;;
17592;SDS011;8915;51.760;14.300;2023-05-14T04:13:59;13.07;;;10.77;;
17592;SDS011;8915;51.760;14.300;2023-05-14T04:16:26;15.33;;;10.77;;
17592;SDS011;8915;51.760;14.300;2023-05-14T04:18:52;13.10;;;11.70;;
17592;SDS011;8915;51.760;14.300;2023-05-14T04:21:19;12.37;;;11.00;;
17592;SDS011;8915;51.760;14.300;2023-05-14T04:23:48;15.10;;;11.77;;
17592;SDS011;8915;51.760;14.300;2023-05-14T04:26:15;16.47;;;11.97;;
17592;SDS011;8915;51.760;14.300;2023-05-14T04:28:42;12.70;;;10.60;;
17592;SDS011;8915;51.760;14.300;2023-05-14T04:31:10;16.53;;;12.20;;
17592;SDS011;8915;51.760;14.300;2023-05-14T04:33:37;15.77;;;12.10;;
17592;SDS011;8915;51.760;14.300;2023-05-14T04:36:04;16.83;;;12.43;;
17592;SDS011;8915;51.760;14.300;2023-05-14T04:38:31;14.40;;;11.90;;
17592;SDS011;8915;51.760;14.300;2023-05-14T04:40:57;15.83;;;12.10;;
17592;SDS011;8915;51.760;14.300;2023-05-14T04:43:24;17.90;;;12.07;;
17592;SDS011;8915;51.760;14.300;2023-05-14T04:45:50;15.17;;;10.73;;
17592;SDS011;8915;51.760;14.300;2023-05-14T04:48:18;15.53;;;11.43;;
17592;SDS011;8915;51.760;14.300;2023-05-14T04:50:45;12.67;;;10.43;;
17592;SDS011;8915;51.760;14.300;2023-05-14T04:53:11;14.50;;;9.93;;
17592;SDS011;8915;51.760;14.300;2023-05-14T04:55:37;14.03;;;11.33;;
17592;SDS011;8915;51.760;14.300;2023-05-14T04:58:07;14.37;;;11.50;;
17592;SDS011;8915;51.760;14.300;2023-05-14T05:00:33;13.23;;;9.37;;
17592;SDS011;8915;51.760;14.300;2023-05-14T05:03:00;11.47;;;9.83;;
17592;SDS011;8915;51.760;14.300;2023-05-14T05:05:27;11.20;;;9.60;;
17592;SDS011;8915;51.760;14.300;2023-05-14T05:07:54;11.87;;;9.53;;
17592;SDS011;8915;51.760;14.300;2023-05-14T05:10:20;11.23;;;9.50;;
17592;SDS011;8915;51.760;14.300;2023-05-14T05:12:46;12.57;;;10.30;;
17592;SDS011;8915;51.760;14.300;2023-05-14T05:15:14;10.70;;;8.63;;
17592;SDS011;8915;51.760;14.300;2023-05-14T05:17:43;12.77;;;8.50;;
17592;SDS011;8915;51.760;14.300;2023-05-14T05:20:10;10.63;;;8.90;;
17592;SDS011;8915;51.760;14.300;2023-05-14T05:22:39;9.53;;;8.47;;
17592;SDS011;8915;51.760;14.300;2023-05-14T05:25:05;10.33;;;8.03;;
17592;SDS011;8915;51.760;14.300;2023-05-14T05:27:33;10.37;;;8.67;;
17592;SDS011;8915;51.760;14.300;2023-05-14T05:29:59;9.63;;;8.47;;
17592;SDS011;8915;51.760;14.300;2023-05-14T05:32:26;10.97;;;7.93;;
17592;SDS011;8915;51.760;14.300;2023-05-14T05:34:53;12.40;;;8.10;;
17592;SDS011;8915;51.760;14.300;2023-05-14T05:37:19;9.77;;;8.73;;
17592;SDS011;8915;51.760;14.300;2023-05-14T05:39:47;11.13;;;7.93;;
17592;SDS011;8915;51.760;14.300;2023-05-14T05:42:14;10.40;;;7.60;;
17592;SDS011;8915;51.760;14.300;2023-05-14T05:44:40;9.17;;;7.37;;
17592;SDS011;8915;51.760;14.300;2023-05-14T05:47:06;8.80;;;7.30;;
17592;SDS011;8915;51.760;14.300;2023-05-14T05:49:33;8.80;;;6.90;;
17592;SDS011;8915;51.760;14.300;2023-05-14T05:52:00;8.30;;;7.37;;
17592;SDS011;8915;51.760;14.300;2023-05-14T05:54:30;8.03;;;6.20;;
17592;SDS011;8915;51.760;14.300;2023-05-14T05:56:58;7.07;;;6.37;;
17592;SDS011;8915;51.760;14.300;2023-05-14T05:59:24;7.17;;;6.20;;
17592;SDS011;8915;51.760;14.300;2023-05-14T06:01:51;10.77;;;6.87;;
17592;SDS011;8915;51.760;14.300;2023-05-14T06:04:17;8.60;;;6.40;;
17592;SDS011;8915;51.760;14.300;2023-05-14T06:06:44;8.20;;;7.20;;
17592;SDS011;8915;51.760;14.300;2023-05-14T06:09:10;8.10;;;6.67;;
17592;SDS011;8915;51.760;14.300;2023-05-14T06:11:37;8.67;;;6.50;;
17592;SDS011;8915;51.760;14.300;2023-05-14T06:14:05;9.57;;;6.90;;
17592;SDS011;8915;51.760;14.300;2023-05-14T06:16:31;9.03;;;6.43;;
17592;SDS011;8915;51.760;14.300;2023-05-14T06:19:00;8.67;;;7.13;;
17592;SDS011;8915;51.760;14.300;2023-05-14T06:21:26;10.07;;;6.63;;
17592;SDS011;8915;51.760;14.300;2023-05-14T06:23:52;7.73;;;6.40;;
17592;SDS011;8915;51.760;14.300;2023-05-14T06:26:19;8.77;;;6.67;;
17592;SDS011;8915;51.760;14.300;2023-05-14T06:28:45;10.40;;;6.90;;
17592;SDS011;8915;51.760;14.300;2023-05-14T06:31:13;7.73;;;6.57;;
17592;SDS011;8915;51.760;14.300;2023-05-14T06:33:39;10.40;;;6.50;;
17592;SDS011;8915;51.760;14.300;2023-05-14T06:36:06;9.33;;;6.30;;
17592;SDS011;8915;51.760;14.300;2023-05-14T06:38:33;7.67;;;6.27;;
17592;SDS011;8915;51.760;14.300;2023-05-14T06:40:59;8.23;;;5.90;;
17592;SDS011;8915;51.760;14.300;2023-05-14T06:43:26;8.37;;;6.30;;
17592;SDS011;8915;51.760;14.300;2023-05-14T06:45:53;7.67;;;5.80;;
17592;SDS011;8915;51.760;14.300;2023-05-14T06:48:20;7.57;;;6.20;;
17592;SDS011;8915;51.760;14.300;2023-05-14T06:50:47;7.53;;;5.97;;
17592;SDS011;8915;51.760;14.300;2023-05-14T06:53:15;7.40;;;6.60;;
17592;SDS011;8915;51.760;14.300;2023-05-14T06:55:41;8.70;;;6.40;;
17592;SDS011;8915;51.760;14.300;2023-05-14T06:58:09;6.70;;;5.27;;
17592;SDS011;8915;51.760;14.300;2023-05-14T07:00:35;9.03;;;6.03;;
17592;SDS011;8915;51.760;14.300;2023-05-14T07:03:01;9.67;;;6.17;;
17592;SDS011;8915;51.760;14.300;2023-05-14T07:05:29;7.73;;;6.10;;
17592;SDS011;8915;51.760;14.300;2023-05-14T07:07:55;6.60;;;5.20;;
17592;SDS011;8915;51.760;14.300;2023-05-14T07:10:22;8.90;;;5.63;;
17592;SDS011;8915;51.760;14.300;2023-05-14T07:12:48;6.47;;;5.13;;
17592;SDS011;8915;51.760;14.300;2023-05-14T07:15:15;7.00;;;5.03;;
17592;SDS011;8915;51.760;14.300;2023-05-14T07:17:41;6.23;;;4.90;;
17592;SDS011;8915;51.760;14.300;2023-05-14T07:20:08;9.80;;;5.40;;
17592;SDS011;8915;51.760;14.300;2023-05-14T07:22:36;6.47;;;4.73;;
17592;SDS011;8915;51.760;14.300;2023-05-14T07:25:03;6.83;;;5.00;;
17592;SDS011;8915;51.760;14.300;2023-05-14T07:27:30;6.23;;;4.97;;
17592;SDS011;8915;51.760;14.300;2023-05-14T07:29:56;8.53;;;5.10;;
17592;SDS011;8915;51.760;14.300;2023-05-14T07:32:22;7.30;;;4.40;;
17592;SDS011;8915;51.760;14.300;2023-05-14T07:34:49;5.67;;;4.40;;
17592;SDS011;8915;51.760;14.300;2023-05-14T07:37:15;6.17;;;4.53;;
17592;SDS011;8915;51.760;14.300;2023-05-14T07:39:43;6.20;;;4.80;;
17592;SDS011;8915;51.760;14.300;2023-05-14T07:42:09;4.13;;;3.70;;
17592;SDS011;8915;51.760;14.300;2023-05-14T07:44:36;7.00;;;4.37;;
17592;SDS011;8915;51.760;14.300;2023-05-14T07:47:02;5.20;;;3.90;;
17592;SDS011;8915;51.760;14.300;2023-05-14T07:49:31;4.43;;;4.03;;
17592;SDS011;8915;51.760;14.300;2023-05-14T07:51:57;5.63;;;4.10;;
17592;SDS011;8915;51.760;14.300;2023-05-14T07:54:24;5.27;;;3.70;;
17592;SDS011;8915;51.760;14.300;2023-05-14T07:56:51;4.63;;;4.10;;
17592;SDS011;8915;51.760;14.300;2023-05-14T07:59:17;4.63;;;3.77;;
17592;SDS011;8915;51.760;14.300;2023-05-14T08:01:44;4.20;;;3.50;;
17592;SDS011;8915;51.760;14.300;2023-05-14T08:04:10;7.30;;;3.17;;
17592;SDS011;8915;51.760;14.300;2023-05-14T08:06:39;4.27;;;3.30;;
17592;SDS011;8915;51.760;14.300;2023-05-14T08:09:05;3.60;;;3.00;;
17592;SDS011;8915;51.760;14.300;2023-05-14T08:11:32;2.90;;;2.60;;
17592;SDS011;8915;51.760;14.300;2023-05-14T08:14:00;3.27;;;2.73;;
17592;SDS011;8915;51.760;14.300;2023-05-14T08:16:26;3.30;;;2.97;;
17592;SDS011;8915;51.760;14.300;2023-05-14T08:18:53;3.80;;;3.10;;
17592;SDS011;8915;51.760;14.300;2023-05-14T08:21:19;2.90;;;2.40;;
17592;SDS011;8915;51.760;14.300;2023-05-14T08:23:46;3.17;;;2.67;;
17592;SDS011;8915;51.760;14.300;2023-05-14T08:26:12;3.00;;;2.70;;
17592;SDS011;8915;51.760;14.300;2023-05-14T08:28:39;3.63;;;2.80;;
17592;SDS011;8915;51.760;14.300;2023-05-14T08:31:06;3.47;;;2.77;;
17592;SDS011;8915;51.760;14.300;2023-05-14T08:33:33;4.50;;;3.07;;
17592;SDS011;8915;51.760;14.300;2023-05-14T08:35:59;3.97;;;2.83;;
17592;SDS011;8915;51.760;14.300;2023-05-14T08:38:25;3.30;;;2.90;;
17592;SDS011;8915;51.760;14.300;2023-05-14T08:40:53;3.47;;;2.87;;
17592;SDS011;8915;51.760;14.300;2023-05-14T08:43:23;2.83;;;2.53;;
17592;SDS011;8915;51.760;14.300;2023-05-14T08:45:51;3.30;;;2.60;;
17592;SDS011;8915;51.760;14.300;2023-05-14T08:48:23;2.90;;;2.60;;
17592;SDS011;8915;51.760;14.300;2023-05-14T08:50:53;2.73;;;2.47;;
17592;SDS011;8915;51.760;14.300;2023-05-14T08:53:20;2.53;;;2.30;;
17592;SDS011;8915;51.760;14.300;2023-05-14T08:55:46;3.50;;;2.10;;
17592;SDS011;8915;51.760;14.300;2023-05-14T08:58:16;3.57;;;2.33;;
17592;SDS011;8915;51.760;14.300;2023-05-14T09:00:42;5.53;;;2.63;;
17592;SDS011;8915;51.760;14.300;2023-05-14T09:03:09;4.90;;;2.50;;
17592;SDS011;8915;51.760;14.300;2023-05-14T09:05:37;2.47;;;2.27;;
17592;SDS011;8915;51.760;14.300;2023-05-14T09:08:04;5.10;;;2.30;;
17592;SDS011;8915;51.760;14.300;2023-05-14T09:10:30;2.87;;;2.43;;
17592;SDS011;8915;51.760;14.300;2023-05-14T09:12:57;2.30;;;2.10;;
17592;SDS011;8915;51.760;14.300;2023-05-14T09:15:23;2.97;;;2.30;;
17592;SDS011;8915;51.760;14.300;2023-05-14T09:17:53;4.10;;;2.70;;
17592;SDS011;8915;51.760;14.300;2023-05-14T09:20:20;3.50;;;2.23;;
17592;SDS011;8915;51.760;14.300;2023-05-14T09:22:51;2.50;;;2.10;;
17592;SDS011;8915;51.760;14.300;2023-05-14T09:25:17;2.27;;;1.97;;
17592;SDS011;8915;51.760;14.300;2023-05-14T09:27:44;2.30;;;2.10;;
17592;SDS011;8915;51.760;14.300;2023-05-14T09:30:14;2.17;;;1.97;;
17592;SDS011;8915;51.760;14.300;2023-05-14T09:32:41;3.33;;;2.27;;
17592;SDS011;8915;51.760;14.300;2023-05-14T09:35:10;2.07;;;1.87;;
17592;SDS011;8915;51.760;14.300;2023-05-14T09:37:40;2.70;;;1.80;;
17592;SDS011;8915;51.760;14.300;2023-05-14T09:40:09;3.07;;;1.90;;
17592;SDS011;8915;51.760;14.300;2023-05-14T09:42:36;1.70;;;1.60;;
17592;SDS011;8915;51.760;14.300;2023-05-14T09:45:02;2.10;;;1.90;;
17592;SDS011;8915;51.760;14.300;2023-05-14T09:47:29;1.87;;;1.70;;
17592;SDS011;8915;51.760;14.300;2023-05-14T09:49:56;2.27;;;1.80;;
17592;SDS011;8915;51.760;14.300;2023-05-14T09:52:23;3.50;;;2.00;;
17592;SDS011;8915;51.760;14.300;2023-05-14T09:54:50;2.07;;;1.60;;
17592;SDS011;8915;51.760;14.300;2023-05-14T09:57:18;2.27;;;1.70;;
17592;SDS011;8915;51.760;14.300;2023-05-14T09:59:45;2.10;;;1.70;;
17592;SDS011;8915;51.760;14.300;2023-05-14T10:02:14;1.50;;;1.37;;
17592;SDS011;8915;51.760;14.300;2023-05-14T10:04:46;1.60;;;1.50;;
17592;SDS011;8915;51.760;14.300;2023-05-14T10:07:13;1.53;;;1.43;;
17592;SDS011;8915;51.760;14.300;2023-05-14T10:09:43;1.70;;;1.60;;
17592;SDS011;8915;51.760;14.300;2023-05-14T10:12:11;2.43;;;1.80;;
17592;SDS011;8915;51.760;14.300;2023-05-14T10:14:44;1.83;;;1.63;;
17592;SDS011;8915;51.760;14.300;2023-05-14T10:17:17;1.70;;;1.60;;
17592;SDS011;8915;51.760;14.300;2023-05-14T10:19:46;1.80;;;1.70;;
17592;SDS011;8915;51.760;14.300;2023-05-14T10:22:15;2.40;;;1.87;;
17592;SDS011;8915;51.760;14.300;2023-05-14T10:24:47;1.87;;;1.70;;
17592;SDS011;8915;51.760;14.300;2023-05-14T10:27:16;1.83;;;1.70;;
17592;SDS011;8915;51.760;14.300;2023-05-14T10:29:47;2.00;;;1.60;;
17592;SDS011;8915;51.760;14.300;2023-05-14T10:32:17;2.03;;;1.83;;
17592;SDS011;8915;51.760;14.300;2023-05-14T10:34:46;2.00;;;1.70;;
17592;SDS011;8915;51.760;14.300;2023-05-14T10:37:13;2.63;;;1.87;;
17592;SDS011;8915;51.760;14.300;2023-05-14T10:39:41;1.90;;;1.70;;
17592;SDS011;8915;51.760;14.300;2023-05-14T10:42:12;2.50;;;1.63;;
17592;SDS011;8915;51.760;14.300;2023-05-14T10:44:49;2.13;;;1.70;;
17592;SDS011;8915;51.760;14.300;2023-05-14T10:47:18;1.90;;;1.70;;
17592;SDS011;8915;51.760;14.300;2023-05-14T10:49:45;1.97;;;1.70;;
17592;SDS011;8915;51.760;14.300;2023-05-14T10:52:15;1.93;;;1.73;;
17592;SDS011;8915;51.760;14.300;2023-05-14T10:54:45;2.17;;;1.70;;
17592;SDS011;8915;51.760;14.300;2023-05-14T10:57:14;1.98;;;1.77;;
17592;SDS011;8915;51.760;14.300;2023-05-14T10:59:42;2.03;;;1.87;;
17592;SDS011;8915;51.760;14.300;2023-05-14T11:02:21;1.93;;;1.70;;
17592;SDS011;8915;51.760;14.300;2023-05-14T11:04:52;2.60;;;2.20;;
17592;SDS011;8915;51.760;14.300;2023-05-14T11:07:21;2.88;;;1.65;;
17592;SDS011;8915;51.760;14.300;2023-05-14T11:09:49;2.25;;;1.95;;
17592;SDS011;8915;51.760;14.300;2023-05-14T11:12:16;2.00;;;1.90;;
17592;SDS011;8915;51.760;14.300;2023-05-14T11:14:43;2.00;;;1.80;;
17592;SDS011;8915;51.760;14.300;2023-05-14T11:17:09;2.25;;;1.70;;
17592;SDS011;8915;51.760;14.300;2023-05-14T11:19:38;1.95;;;1.75;;
17592;SDS011;8915;51.760;14.300;2023-05-14T11:22:05;2.17;;;1.80;;
17592;SDS011;8915;51.760;14.300;2023-05-14T11:24:32;1.95;;;1.75;;
17592;SDS011;8915;51.760;14.300;2023-05-14T11:26:58;2.13;;;1.92;;
17592;SDS011;8915;51.760;14.300;2023-05-14T11:29:24;3.03;;;1.67;;
17592;SDS011;8915;51.760;14.300;2023-05-14T11:31:51;3.33;;;1.70;;
17592;SDS011;8915;51.760;14.300;2023-05-14T11:34:17;2.22;;;1.60;;
17592;SDS011;8915;51.760;14.300;2023-05-14T11:36:45;2.13;;;1.67;;
17592;SDS011;8915;51.760;14.300;2023-05-14T11:39:16;1.95;;;1.63;;
17592;SDS011;8915;51.760;14.300;2023-05-14T11:41:43;3.10;;;2.00;;
17592;SDS011;8915;51.760;14.300;2023-05-14T11:44:09;2.78;;;2.10;;
17592;SDS011;8915;51.760;14.300;2023-05-14T11:46:36;2.20;;;2.00;;
17592;SDS011;8915;51.760;14.300;2023-05-14T11:49:02;2.92;;;2.25;;
17592;SDS011;8915;51.760;14.300;2023-05-14T11:51:29;2.25;;;2.05;;
17592;SDS011;8915;51.760;14.300;2023-05-14T11:53:57;2.30;;;2.10;;
17592;SDS011;8915;51.760;14.300;2023-05-14T11:56:23;2.22;;;2.00;;
17592;SDS011;8915;51.760;14.300;2023-05-14T11:58:54;2.50;;;2.03;;
17592;SDS011;8915;51.760;14.300;2023-05-14T12:01:21;1.77;;;1.65;;
17592;SDS011;8915;51.760;14.300;2023-05-14T12:03:48;3.58;;;1.83;;
17592;SDS011;8915;51.760;14.300;2023-05-14T12:06:15;1.67;;;1.58;;
17592;SDS011;8915;51.760;14.300;2023-05-14T12:08:43;2.80;;;1.50;;
17592;SDS011;8915;51.760;14.300;2023-05-14T12:11:11;1.80;;;1.50;;
17592;SDS011;8915;51.760;14.300;2023-05-14T12:13:38;1.65;;;1.50;;
17592;SDS011;8915;51.760;14.300;2023-05-14T12:16:04;1.77;;;1.50;;
17592;SDS011;8915;51.760;14.300;2023-05-14T12:18:32;1.55;;;1.42;;
17592;SDS011;8915;51.760;14.300;2023-05-14T12:21:00;1.35;;;1.25;;
17592;SDS011;8915;51.760;14.300;2023-05-14T12:23:28;1.73;;;1.60;;
17592;SDS011;8915;51.760;14.300;2023-05-14T12:25:59;1.73;;;1.30;;
17592;SDS011;8915;51.760;14.300;2023-05-14T12:28:28;1.20;;;1.10;;
17592;SDS011;8915;51.760;14.300;2023-05-14T12:30:55;2.83;;;1.30;;
17592;SDS011;8915;51.760;14.300;2023-05-14T12:33:22;1.40;;;1.30;;
17592;SDS011;8915;51.760;14.300;2023-05-14T12:35:50;1.30;;;1.20;;
17592;SDS011;8915;51.760;14.300;2023-05-14T12:38:17;2.13;;;1.15;;
17592;SDS011;8915;51.760;14.300;2023-05-14T12:40:44;1.30;;;1.20;;
17592;SDS011;8915;51.760;14.300;2023-05-14T12:43:11;2.08;;;1.30;;
17592;SDS011;8915;51.760;14.300;2023-05-14T12:45:38;1.35;;;1.25;;
17592;SDS011;8915;51.760;14.300;2023-05-14T12:48:05;1.50;;;1.40;;
17592;SDS011;8915;51.760;14.300;2023-05-14T12:50:31;2.37;;;1.37;;
17592;SDS011;8915;51.760;14.300;2023-05-14T12:52:58;1.03;;;1.00;;
17592;SDS011;8915;51.760;14.300;2023-05-14T12:55:24;1.33;;;1.23;;
17592;SDS011;8915;51.760;14.300;2023-05-14T12:57:50;2.13;;;1.70;;
17592;SDS011;8915;51.760;14.300;2023-05-14T13:00:17;2.40;;;2.20;;
17592;SDS011;8915;51.760;14.300;2023-05-14T13:02:45;2.90;;;2.10;;
17592;SDS011;8915;51.760;14.300;2023-05-14T13:05:11;3.30;;;2.60;;
17592;SDS011;8915;51.760;14.300;2023-05-14T13:07:37;2.50;;;2.30;;
17592;SDS011;8915;51.760;14.300;2023-05-14T13:10:04;3.70;;;2.63;;
17592;SDS011;8915;51.760;14.300;2023-05-14T13:12:32;3.43;;;2.60;;
17592;SDS011;8915;51.760;14.300;2023-05-14T13:14:58;3.13;;;2.53;;
17592;SDS011;8915;51.760;14.300;2023-05-14T13:17:24;2.53;;;1.40;;
17592;SDS011;8915;51.760;14.300;2023-05-14T13:19:52;2.43;;;2.23;;
17592;SDS011;8915;51.760;14.300;2023-05-14T13:22:18;3.93;;;2.60;;
17592;SDS011;8915;51.760;14.300;2023-05-14T13:24:45;2.93;;;2.70;;
17592;SDS011;8915;51.760;14.300;2023-05-14T13:27:11;2.90;;;2.60;;
17592;SDS011;8915;51.760;14.300;2023-05-14T13:29:38;4.63;;;2.70;;
17592;SDS011;8915;51.760;14.300;2023-05-14T13:32:04;2.80;;;2.50;;
17592;SDS011;8915;51.760;14.300;2023-05-14T13:34:31;3.60;;;2.80;;
17592;SDS011;8915;51.760;14.300;2023-05-14T13:36:58;3.47;;;2.43;;
17592;SDS011;8915;51.760;14.300;2023-05-14T13:39:25;2.67;;;2.47;;
17592;SDS011;8915;51.760;14.300;2023-05-14T13:41:51;4.23;;;3.13;;
17592;SDS011;8915;51.760;14.300;2023-05-14T13:44:20;3.63;;;2.47;;
17592;SDS011;8915;51.760;14.300;2023-05-14T13:46:47;3.37;;;2.60;;
17592;SDS011;8915;51.760;14.300;2023-05-14T13:49:13;3.53;;;2.87;;
17592;SDS011;8915;51.760;14.300;2023-05-14T13:51:39;3.07;;;2.77;;
17592;SDS011;8915;51.760;14.300;2023-05-14T13:54:07;3.37;;;2.60;;
17592;SDS011;8915;51.760;14.300;2023-05-14T13:56:33;3.00;;;2.73;;
17592;SDS011;8915;51.760;14.300;2023-05-14T13:59:00;3.30;;;2.50;;
17592;SDS011;8915;51.760;14.300;2023-05-14T14:01:27;3.07;;;2.77;;
17592;SDS011;8915;51.760;14.300;2023-05-14T14:03:54;2.87;;;2.50;;
17592;SDS011;8915;51.760;14.300;2023-05-14T14:06:21;2.73;;;2.53;;
17592;SDS011;8915;51.760;14.300;2023-05-14T14:08:47;2.40;;;2.20;;
17592;SDS011;8915;51.760;14.300;2023-05-14T14:11:15;3.30;;;2.73;;
17592;SDS011;8915;51.760;14.300;2023-05-14T14:13:41;3.13;;;2.57;;
17592;SDS011;8915;51.760;14.300;2023-05-14T14:16:08;2.53;;;2.33;;
17592;SDS011;8915;51.760;14.300;2023-05-14T14:18:34;2.63;;;2.07;;
17592;SDS011;8915;51.760;14.300;2023-05-14T14:21:00;2.67;;;2.47;;
17592;SDS011;8915;51.760;14.300;2023-05-14T14:23:27;2.70;;;2.30;;
17592;SDS011;8915;51.760;14.300;2023-05-14T14:25:53;3.10;;;2.30;;
17592;SDS011;8915;51.760;14.300;2023-05-14T14:28:21;3.70;;;2.43;;
17592;SDS011;8915;51.760;14.300;2023-05-14T14:30:47;2.53;;;2.30;;
17592;SDS011;8915;51.760;14.300;2023-05-14T14:33:14;2.13;;;2.00;;
17592;SDS011;8915;51.760;14.300;2023-05-14T14:35:41;4.10;;;2.90;;
17592;SDS011;8915;51.760;14.300;2023-05-14T14:38:07;2.70;;;2.40;;
17592;SDS011;8915;51.760;14.300;2023-05-14T14:40:33;3.47;;;2.80;;
17592;SDS011;8915;51.760;14.300;2023-05-14T14:43:00;3.77;;;2.70;;